sensor_id;sensor_type;location;lat;lon;timestamp;P1;durP1;ratioP1;P2;durP2;ratioP2
44750;SDS011;30477;48.224;11.470;2022-12-29T00:01:27;2.65;;;2.20;;
44750;SDS011;30477;48.224;11.470;2022-12-29T00:03:53;2.27;;;2.03;;
44750;SDS011;30477;48.224;11.470;2022-12-29T00:06:18;2.77;;;1.90;;
44750;SDS011;30477;48.224;11.470;2022-12-29T00:08:43;3.07;;;2.00;;
44750;SDS011;30477;48.224;11.470;2022-12-29T00:11:10;2.63;;;2.07;;
44750;SDS011;30477;48.224;11.470;2022-12-29T00:13:37;3.00;;;2.00;;
44750;SDS011;30477;48.224;11.470;2022-12-29T00:16:21;2.50;;;2.20;;
44750;SDS011;30477;48.224;11.470;2022-12-29T00:18:46;3.30;;;1.90;;
44750;SDS011;30477;48.224;11.470;2022-12-29T00:21:21;3.00;;;2.13;;
44750;SDS011;30477;48.224;11.470;2022-12-29T00:24:09;3.55;;;2.17;;
44750;SDS011;30477;48.224;11.470;2022-12-29T00:27:13;3.53;;;2.13;;
44750;SDS011;30477;48.224;11.470;2022-12-29T00:29:56;3.30;;;2.03;;
44750;SDS011;30477;48.224;11.470;2022-12-29T00:32:40;2.97;;;2.15;;
44750;SDS011;30477;48.224;11.470;2022-12-29T00:37:54;3.15;;;2.20;;
44750;SDS011;30477;48.224;11.470;2022-12-29T00:40:40;3.00;;;1.80;;
44750;SDS011;30477;48.224;11.470;2022-12-29T00:43:37;2.45;;;1.92;;
44750;SDS011;30477;48.224;11.470;2022-12-29T00:46:21;2.22;;;1.70;;
44750;SDS011;30477;48.224;11.470;2022-12-29T00:48:47;2.50;;;1.90;;
44750;SDS011;30477;48.224;11.470;2022-12-29T00:51:30;3.97;;;1.88;;
44750;SDS011;30477;48.224;11.470;2022-12-29T00:53:56;2.23;;;1.80;;
44750;SDS011;30477;48.224;11.470;2022-12-29T00:56:21;4.50;;;1.87;;
44750;SDS011;30477;48.224;11.470;2022-12-29T00:58:46;2.53;;;1.83;;
44750;SDS011;30477;48.224;11.470;2022-12-29T01:01:12;3.03;;;2.10;;
44750;SDS011;30477;48.224;11.470;2022-12-29T01:03:37;3.50;;;1.80;;
44750;SDS011;30477;48.224;11.470;2022-12-29T01:06:04;3.63;;;1.80;;
44750;SDS011;30477;48.224;11.470;2022-12-29T01:08:31;3.05;;;1.90;;
44750;SDS011;30477;48.224;11.470;2022-12-29T01:11:04;2.40;;;1.73;;
44750;SDS011;30477;48.224;11.470;2022-12-29T01:13:32;2.25;;;1.70;;
44750;SDS011;30477;48.224;11.470;2022-12-29T01:15:58;2.80;;;2.00;;
44750;SDS011;30477;48.224;11.470;2022-12-29T01:18:24;2.83;;;1.83;;
44750;SDS011;30477;48.224;11.470;2022-12-29T01:20:50;2.25;;;1.80;;
44750;SDS011;30477;48.224;11.470;2022-12-29T01:23:16;3.53;;;2.03;;
44750;SDS011;30477;48.224;11.470;2022-12-29T01:25:41;2.30;;;1.90;;
44750;SDS011;30477;48.224;11.470;2022-12-29T01:28:07;4.83;;;2.10;;
44750;SDS011;30477;48.224;11.470;2022-12-29T01:30:33;2.65;;;1.95;;
44750;SDS011;30477;48.224;11.470;2022-12-29T01:33:00;4.72;;;2.05;;
44750;SDS011;30477;48.224;11.470;2022-12-29T01:35:25;2.83;;;1.90;;
44750;SDS011;30477;48.224;11.470;2022-12-29T01:37:51;2.87;;;1.70;;
44750;SDS011;30477;48.224;11.470;2022-12-29T01:40:16;1.90;;;1.70;;
44750;SDS011;30477;48.224;11.470;2022-12-29T01:42:41;2.70;;;1.60;;
44750;SDS011;30477;48.224;11.470;2022-12-29T01:47:47;2.80;;;1.90;;
44750;SDS011;30477;48.224;11.470;2022-12-29T01:50:18;2.88;;;1.92;;
44750;SDS011;30477;48.224;11.470;2022-12-29T01:52:54;2.88;;;1.70;;
44750;SDS011;30477;48.224;11.470;2022-12-29T01:55:23;2.53;;;1.80;;
44750;SDS011;30477;48.224;11.470;2022-12-29T01:57:52;2.00;;;1.70;;
44750;SDS011;30477;48.224;11.470;2022-12-29T02:00:20;2.47;;;1.63;;
44750;SDS011;30477;48.224;11.470;2022-12-29T02:02:47;2.20;;;1.70;;
44750;SDS011;30477;48.224;11.470;2022-12-29T02:07:58;2.35;;;1.80;;
44750;SDS011;30477;48.224;11.470;2022-12-29T02:10:25;2.67;;;1.80;;
44750;SDS011;30477;48.224;11.470;2022-12-29T02:12:54;2.33;;;1.70;;
44750;SDS011;30477;48.224;11.470;2022-12-29T02:35:34;1.55;;;1.40;;
44750;SDS011;30477;48.224;11.470;2022-12-29T02:40:48;1.73;;;1.38;;
44750;SDS011;30477;48.224;11.470;2022-12-29T02:43:38;3.03;;;1.60;;
44750;SDS011;30477;48.224;11.470;2022-12-29T02:54:29;2.53;;;1.37;;
44750;SDS011;30477;48.224;11.470;2022-12-29T02:59:54;2.97;;;1.60;;
44750;SDS011;30477;48.224;11.470;2022-12-29T03:02:30;4.25;;;1.58;;
44750;SDS011;30477;48.224;11.470;2022-12-29T03:07:52;2.15;;;1.40;;
44750;SDS011;30477;48.224;11.470;2022-12-29T03:15:58;1.80;;;1.42;;
44750;SDS011;30477;48.224;11.470;2022-12-29T03:18:34;1.80;;;1.40;;
44750;SDS011;30477;48.224;11.470;2022-12-29T03:21:03;2.10;;;1.35;;
44750;SDS011;30477;48.224;11.470;2022-12-29T03:26:36;1.50;;;1.23;;
44750;SDS011;30477;48.224;11.470;2022-12-29T03:29:02;3.47;;;1.45;;
44750;SDS011;30477;48.224;11.470;2022-12-29T03:31:32;1.83;;;1.15;;
44750;SDS011;30477;48.224;11.470;2022-12-29T03:34:00;1.60;;;1.40;;
44750;SDS011;30477;48.224;11.470;2022-12-29T03:36:34;1.63;;;1.20;;
44750;SDS011;30477;48.224;11.470;2022-12-29T03:39:08;2.33;;;1.40;;
44750;SDS011;30477;48.224;11.470;2022-12-29T03:41:36;1.42;;;1.33;;
44750;SDS011;30477;48.224;11.470;2022-12-29T03:44:05;2.65;;;1.15;;
44750;SDS011;30477;48.224;11.470;2022-12-29T03:46:31;1.95;;;1.45;;
44750;SDS011;30477;48.224;11.470;2022-12-29T03:48:57;3.43;;;1.50;;
44750;SDS011;30477;48.224;11.470;2022-12-29T03:51:22;1.20;;;1.10;;
44750;SDS011;30477;48.224;11.470;2022-12-29T03:53:47;1.73;;;1.40;;
44750;SDS011;30477;48.224;11.470;2022-12-29T03:56:13;1.80;;;1.23;;
44750;SDS011;30477;48.224;11.470;2022-12-29T03:58:38;2.07;;;1.60;;
44750;SDS011;30477;48.224;11.470;2022-12-29T04:01:04;1.60;;;1.30;;
44750;SDS011;30477;48.224;11.470;2022-12-29T04:03:29;3.07;;;1.37;;
44750;SDS011;30477;48.224;11.470;2022-12-29T04:05:54;1.87;;;1.30;;
44750;SDS011;30477;48.224;11.470;2022-12-29T04:08:19;2.17;;;1.40;;
44750;SDS011;30477;48.224;11.470;2022-12-29T04:10:45;1.70;;;1.40;;
44750;SDS011;30477;48.224;11.470;2022-12-29T04:13:10;1.53;;;1.10;;
44750;SDS011;30477;48.224;11.470;2022-12-29T04:15:36;1.80;;;1.23;;
44750;SDS011;30477;48.224;11.470;2022-12-29T04:18:01;1.43;;;1.20;;
44750;SDS011;30477;48.224;11.470;2022-12-29T04:20:26;2.00;;;1.40;;
44750;SDS011;30477;48.224;11.470;2022-12-29T04:23:10;2.85;;;1.70;;
44750;SDS011;30477;48.224;11.470;2022-12-29T04:25:37;1.73;;;1.17;;
44750;SDS011;30477;48.224;11.470;2022-12-29T04:28:02;5.85;;;1.90;;
44750;SDS011;30477;48.224;11.470;2022-12-29T04:30:28;1.70;;;1.43;;
44750;SDS011;30477;48.224;11.470;2022-12-29T04:32:53;1.50;;;1.30;;
44750;SDS011;30477;48.224;11.470;2022-12-29T04:35:18;2.77;;;1.30;;
44750;SDS011;30477;48.224;11.470;2022-12-29T04:37:44;1.73;;;1.30;;
44750;SDS011;30477;48.224;11.470;2022-12-29T04:40:09;3.20;;;1.60;;
44750;SDS011;30477;48.224;11.470;2022-12-29T04:42:35;3.85;;;1.25;;
44750;SDS011;30477;48.224;11.470;2022-12-29T04:45:00;2.57;;;1.10;;
44750;SDS011;30477;48.224;11.470;2022-12-29T04:47:26;2.33;;;1.40;;
44750;SDS011;30477;48.224;11.470;2022-12-29T04:49:51;1.43;;;1.20;;
44750;SDS011;30477;48.224;11.470;2022-12-29T04:52:17;3.93;;;1.30;;
44750;SDS011;30477;48.224;11.470;2022-12-29T04:54:42;1.17;;;0.97;;
44750;SDS011;30477;48.224;11.470;2022-12-29T04:57:07;1.70;;;1.50;;
44750;SDS011;30477;48.224;11.470;2022-12-29T04:59:33;2.43;;;1.00;;
44750;SDS011;30477;48.224;11.470;2022-12-29T05:01:58;1.47;;;1.30;;
44750;SDS011;30477;48.224;11.470;2022-12-29T05:04:23;2.20;;;1.30;;
44750;SDS011;30477;48.224;11.470;2022-12-29T05:06:49;2.37;;;1.47;;
44750;SDS011;30477;48.224;11.470;2022-12-29T05:09:14;1.27;;;1.17;;
44750;SDS011;30477;48.224;11.470;2022-12-29T05:11:39;3.20;;;1.80;;
44750;SDS011;30477;48.224;11.470;2022-12-29T05:14:05;1.40;;;1.30;;
44750;SDS011;30477;48.224;11.470;2022-12-29T05:16:30;2.10;;;1.50;;
44750;SDS011;30477;48.224;11.470;2022-12-29T05:18:55;2.93;;;1.20;;
44750;SDS011;30477;48.224;11.470;2022-12-29T05:21:21;1.73;;;1.60;;
44750;SDS011;30477;48.224;11.470;2022-12-29T05:23:46;3.93;;;1.50;;
44750;SDS011;30477;48.224;11.470;2022-12-29T05:26:11;4.33;;;1.33;;
44750;SDS011;30477;48.224;11.470;2022-12-29T05:28:37;1.37;;;1.20;;
44750;SDS011;30477;48.224;11.470;2022-12-29T05:31:02;5.90;;;1.60;;
44750;SDS011;30477;48.224;11.470;2022-12-29T05:33:28;2.20;;;1.33;;
44750;SDS011;30477;48.224;11.470;2022-12-29T05:35:53;2.07;;;1.30;;
44750;SDS011;30477;48.224;11.470;2022-12-29T05:38:18;1.87;;;1.30;;
44750;SDS011;30477;48.224;11.470;2022-12-29T05:40:44;2.87;;;1.43;;
44750;SDS011;30477;48.224;11.470;2022-12-29T05:43:09;1.67;;;1.40;;
44750;SDS011;30477;48.224;11.470;2022-12-29T05:45:35;1.77;;;1.40;;
44750;SDS011;30477;48.224;11.470;2022-12-29T05:48:01;2.70;;;1.40;;
44750;SDS011;30477;48.224;11.470;2022-12-29T05:50:26;2.33;;;1.40;;
44750;SDS011;30477;48.224;11.470;2022-12-29T05:52:51;2.00;;;1.57;;
44750;SDS011;30477;48.224;11.470;2022-12-29T05:55:17;3.87;;;1.30;;
44750;SDS011;30477;48.224;11.470;2022-12-29T05:57:42;3.10;;;1.40;;
44750;SDS011;30477;48.224;11.470;2022-12-29T06:00:08;2.30;;;1.27;;
44750;SDS011;30477;48.224;11.470;2022-12-29T06:02:34;2.55;;;1.60;;
44750;SDS011;30477;48.224;11.470;2022-12-29T06:04:59;3.73;;;1.47;;
44750;SDS011;30477;48.224;11.470;2022-12-29T06:07:24;2.03;;;1.33;;
44750;SDS011;30477;48.224;11.470;2022-12-29T06:09:50;1.40;;;1.20;;
44750;SDS011;30477;48.224;11.470;2022-12-29T06:12:15;1.67;;;1.27;;
44750;SDS011;30477;48.224;11.470;2022-12-29T06:14:41;1.53;;;1.20;;
44750;SDS011;30477;48.224;11.470;2022-12-29T06:17:07;2.80;;;1.38;;
44750;SDS011;30477;48.224;11.470;2022-12-29T06:19:32;3.40;;;1.50;;
44750;SDS011;30477;48.224;11.470;2022-12-29T06:21:57;3.87;;;2.27;;
44750;SDS011;30477;48.224;11.470;2022-12-29T06:24:23;5.33;;;1.90;;
44750;SDS011;30477;48.224;11.470;2022-12-29T06:26:48;2.07;;;1.30;;
44750;SDS011;30477;48.224;11.470;2022-12-29T06:29:13;2.70;;;1.87;;
44750;SDS011;30477;48.224;11.470;2022-12-29T06:31:42;2.20;;;1.17;;
44750;SDS011;30477;48.224;11.470;2022-12-29T06:34:08;2.05;;;1.48;;
44750;SDS011;30477;48.224;11.470;2022-12-29T06:36:33;2.73;;;1.50;;
44750;SDS011;30477;48.224;11.470;2022-12-29T06:38:59;1.63;;;1.30;;
44750;SDS011;30477;48.224;11.470;2022-12-29T06:41:24;1.97;;;1.47;;
44750;SDS011;30477;48.224;11.470;2022-12-29T06:43:50;1.43;;;1.27;;
44750;SDS011;30477;48.224;11.470;2022-12-29T06:46:15;1.13;;;1.03;;
44750;SDS011;30477;48.224;11.470;2022-12-29T06:48:40;2.07;;;1.43;;
44750;SDS011;30477;48.224;11.470;2022-12-29T06:53:32;1.60;;;1.30;;
44750;SDS011;30477;48.224;11.470;2022-12-29T06:55:57;2.77;;;1.73;;
44750;SDS011;30477;48.224;11.470;2022-12-29T06:58:23;2.70;;;1.80;;
44750;SDS011;30477;48.224;11.470;2022-12-29T07:00:48;3.27;;;1.70;;
44750;SDS011;30477;48.224;11.470;2022-12-29T07:03:14;3.07;;;1.63;;
44750;SDS011;30477;48.224;11.470;2022-12-29T07:05:39;2.10;;;1.50;;
44750;SDS011;30477;48.224;11.470;2022-12-29T07:08:04;2.80;;;1.50;;
44750;SDS011;30477;48.224;11.470;2022-12-29T07:10:30;2.45;;;1.48;;
44750;SDS011;30477;48.224;11.470;2022-12-29T07:12:56;3.50;;;1.50;;
44750;SDS011;30477;48.224;11.470;2022-12-29T07:15:21;2.93;;;1.70;;
44750;SDS011;30477;48.224;11.470;2022-12-29T07:17:47;5.10;;;2.17;;
44750;SDS011;30477;48.224;11.470;2022-12-29T07:20:14;3.10;;;1.52;;
44750;SDS011;30477;48.224;11.470;2022-12-29T07:22:40;3.67;;;1.60;;
44750;SDS011;30477;48.224;11.470;2022-12-29T07:25:05;7.33;;;1.87;;
44750;SDS011;30477;48.224;11.470;2022-12-29T07:27:31;2.80;;;1.40;;
44750;SDS011;30477;48.224;11.470;2022-12-29T07:29:56;3.33;;;1.63;;
44750;SDS011;30477;48.224;11.470;2022-12-29T07:32:21;1.90;;;1.60;;
44750;SDS011;30477;48.224;11.470;2022-12-29T07:34:47;3.20;;;1.80;;
44750;SDS011;30477;48.224;11.470;2022-12-29T07:37:12;3.17;;;1.73;;
44750;SDS011;30477;48.224;11.470;2022-12-29T07:39:39;2.65;;;1.63;;
44750;SDS011;30477;48.224;11.470;2022-12-29T07:42:05;2.77;;;1.80;;
44750;SDS011;30477;48.224;11.470;2022-12-29T07:44:30;2.93;;;1.70;;
44750;SDS011;30477;48.224;11.470;2022-12-29T07:46:56;2.53;;;1.70;;
44750;SDS011;30477;48.224;11.470;2022-12-29T07:49:21;2.72;;;1.98;;
44750;SDS011;30477;48.224;11.470;2022-12-29T07:51:47;4.37;;;2.37;;
44750;SDS011;30477;48.224;11.470;2022-12-29T07:54:12;4.60;;;1.67;;
44750;SDS011;30477;48.224;11.470;2022-12-29T07:56:38;3.13;;;1.80;;
44750;SDS011;30477;48.224;11.470;2022-12-29T07:59:03;3.23;;;1.80;;
44750;SDS011;30477;48.224;11.470;2022-12-29T08:01:29;2.78;;;1.80;;
44750;SDS011;30477;48.224;11.470;2022-12-29T08:03:54;2.97;;;1.77;;
44750;SDS011;30477;48.224;11.470;2022-12-29T08:06:19;2.67;;;1.40;;
44750;SDS011;30477;48.224;11.470;2022-12-29T08:08:45;2.83;;;1.60;;
44750;SDS011;30477;48.224;11.470;2022-12-29T08:11:10;3.10;;;1.50;;
44750;SDS011;30477;48.224;11.470;2022-12-29T08:13:36;2.37;;;1.53;;
44750;SDS011;30477;48.224;11.470;2022-12-29T08:16:01;3.77;;;1.50;;
44750;SDS011;30477;48.224;11.470;2022-12-29T08:18:26;2.60;;;1.60;;
44750;SDS011;30477;48.224;11.470;2022-12-29T08:20:52;2.30;;;1.60;;
44750;SDS011;30477;48.224;11.470;2022-12-29T08:23:17;2.53;;;1.50;;
44750;SDS011;30477;48.224;11.470;2022-12-29T08:25:42;3.57;;;2.00;;
44750;SDS011;30477;48.224;11.470;2022-12-29T08:28:08;4.00;;;1.30;;
44750;SDS011;30477;48.224;11.470;2022-12-29T08:30:33;3.13;;;1.70;;
44750;SDS011;30477;48.224;11.470;2022-12-29T08:32:58;1.90;;;1.57;;
44750;SDS011;30477;48.224;11.470;2022-12-29T08:35:24;3.60;;;1.63;;
44750;SDS011;30477;48.224;11.470;2022-12-29T08:37:49;2.63;;;1.80;;
44750;SDS011;30477;48.224;11.470;2022-12-29T08:40:14;3.07;;;1.60;;
44750;SDS011;30477;48.224;11.470;2022-12-29T08:42:40;2.93;;;1.73;;
44750;SDS011;30477;48.224;11.470;2022-12-29T08:45:05;2.23;;;1.50;;
44750;SDS011;30477;48.224;11.470;2022-12-29T08:47:31;3.60;;;1.83;;
44750;SDS011;30477;48.224;11.470;2022-12-29T08:49:57;2.87;;;1.80;;
44750;SDS011;30477;48.224;11.470;2022-12-29T08:52:22;3.50;;;2.00;;
44750;SDS011;30477;48.224;11.470;2022-12-29T08:54:47;3.57;;;1.73;;
44750;SDS011;30477;48.224;11.470;2022-12-29T08:57:13;3.17;;;1.60;;
44750;SDS011;30477;48.224;11.470;2022-12-29T08:59:38;3.77;;;1.67;;
44750;SDS011;30477;48.224;11.470;2022-12-29T09:02:04;4.17;;;1.83;;
44750;SDS011;30477;48.224;11.470;2022-12-29T09:04:29;2.17;;;1.50;;
44750;SDS011;30477;48.224;11.470;2022-12-29T09:06:54;2.27;;;1.40;;
44750;SDS011;30477;48.224;11.470;2022-12-29T09:09:20;2.90;;;1.47;;
44750;SDS011;30477;48.224;11.470;2022-12-29T09:11:46;3.00;;;1.63;;
44750;SDS011;30477;48.224;11.470;2022-12-29T09:14:11;4.03;;;1.87;;
44750;SDS011;30477;48.224;11.470;2022-12-29T09:16:37;2.50;;;1.40;;
44750;SDS011;30477;48.224;11.470;2022-12-29T09:19:03;3.17;;;1.67;;
44750;SDS011;30477;48.224;11.470;2022-12-29T09:21:28;2.73;;;1.53;;
44750;SDS011;30477;48.224;11.470;2022-12-29T09:23:54;3.03;;;1.67;;
44750;SDS011;30477;48.224;11.470;2022-12-29T09:26:19;2.60;;;1.50;;
44750;SDS011;30477;48.224;11.470;2022-12-29T09:28:44;3.27;;;1.40;;
44750;SDS011;30477;48.224;11.470;2022-12-29T09:31:10;2.17;;;1.30;;
44750;SDS011;30477;48.224;11.470;2022-12-29T09:33:36;5.93;;;1.40;;
44750;SDS011;30477;48.224;11.470;2022-12-29T09:36:02;2.17;;;1.27;;
44750;SDS011;30477;48.224;11.470;2022-12-29T09:38:28;2.80;;;1.60;;
44750;SDS011;30477;48.224;11.470;2022-12-29T09:40:55;2.47;;;1.50;;
44750;SDS011;30477;48.224;11.470;2022-12-29T09:43:45;1.65;;;1.48;;
44750;SDS011;30477;48.224;11.470;2022-12-29T09:46:25;2.97;;;1.90;;
44750;SDS011;30477;48.224;11.470;2022-12-29T09:49:02;4.50;;;1.45;;
44750;SDS011;30477;48.224;11.470;2022-12-29T09:51:37;5.15;;;1.70;;
44750;SDS011;30477;48.224;11.470;2022-12-29T09:54:15;4.63;;;1.88;;
44750;SDS011;30477;48.224;11.470;2022-12-29T09:57:05;3.78;;;1.50;;
44750;SDS011;30477;48.224;11.470;2022-12-29T09:59:41;5.72;;;1.65;;
44750;SDS011;30477;48.224;11.470;2022-12-29T10:04:40;2.28;;;1.52;;
44750;SDS011;30477;48.224;11.470;2022-12-29T10:07:23;2.42;;;1.80;;
44750;SDS011;30477;48.224;11.470;2022-12-29T10:13:06;3.03;;;1.73;;
44750;SDS011;30477;48.224;11.470;2022-12-29T10:15:53;7.43;;;2.10;;
44750;SDS011;30477;48.224;11.470;2022-12-29T10:19:23;4.78;;;1.80;;
44750;SDS011;30477;48.224;11.470;2022-12-29T10:21:25;5.47;;;1.73;;
44750;SDS011;30477;48.224;11.470;2022-12-29T10:24:02;7.05;;;2.03;;
44750;SDS011;30477;48.224;11.470;2022-12-29T10:26:33;4.38;;;1.65;;
44750;SDS011;30477;48.224;11.470;2022-12-29T10:29:04;7.82;;;2.25;;
44750;SDS011;30477;48.224;11.470;2022-12-29T10:31:37;4.55;;;1.80;;
44750;SDS011;30477;48.224;11.470;2022-12-29T10:37:14;3.88;;;1.90;;
44750;SDS011;30477;48.224;11.470;2022-12-29T10:39:57;3.22;;;1.70;;
44750;SDS011;30477;48.224;11.470;2022-12-29T10:42:34;2.60;;;2.28;;
44750;SDS011;30477;48.224;11.470;2022-12-29T10:45:05;5.25;;;2.10;;
44750;SDS011;30477;48.224;11.470;2022-12-29T10:47:38;2.92;;;1.90;;
44750;SDS011;30477;48.224;11.470;2022-12-29T10:50:16;3.28;;;1.83;;
44750;SDS011;30477;48.224;11.470;2022-12-29T10:52:42;4.07;;;2.35;;
44750;SDS011;30477;48.224;11.470;2022-12-29T10:55:25;5.72;;;1.90;;
44750;SDS011;30477;48.224;11.470;2022-12-29T10:57:56;6.15;;;1.90;;
44750;SDS011;30477;48.224;11.470;2022-12-29T11:00:29;4.40;;;2.00;;
44750;SDS011;30477;48.224;11.470;2022-12-29T11:05:56;2.42;;;1.55;;
44750;SDS011;30477;48.224;11.470;2022-12-29T11:08:26;2.78;;;1.70;;
44750;SDS011;30477;48.224;11.470;2022-12-29T11:11:00;3.53;;;1.83;;
44750;SDS011;30477;48.224;11.470;2022-12-29T11:13:28;4.03;;;2.25;;
44750;SDS011;30477;48.224;11.470;2022-12-29T11:15:56;3.03;;;1.98;;
44750;SDS011;30477;48.224;11.470;2022-12-29T11:18:55;4.30;;;1.80;;
44750;SDS011;30477;48.224;11.470;2022-12-29T11:24:05;3.20;;;1.55;;
44750;SDS011;30477;48.224;11.470;2022-12-29T11:26:43;1.85;;;1.40;;
44750;SDS011;30477;48.224;11.470;2022-12-29T11:31:44;3.08;;;1.70;;
44750;SDS011;30477;48.224;11.470;2022-12-29T11:34:21;3.45;;;1.60;;
44750;SDS011;30477;48.224;11.470;2022-12-29T11:36:50;3.40;;;1.60;;
44750;SDS011;30477;48.224;11.470;2022-12-29T11:39:23;2.17;;;1.50;;
44750;SDS011;30477;48.224;11.470;2022-12-29T11:41:53;2.70;;;1.40;;
44750;SDS011;30477;48.224;11.470;2022-12-29T11:44:18;3.55;;;2.05;;
44750;SDS011;30477;48.224;11.470;2022-12-29T11:46:45;2.22;;;1.55;;
44750;SDS011;30477;48.224;11.470;2022-12-29T11:49:13;3.70;;;1.40;;
44750;SDS011;30477;48.224;11.470;2022-12-29T11:51:47;4.82;;;1.60;;
44750;SDS011;30477;48.224;11.470;2022-12-29T11:54:19;2.20;;;1.60;;
44750;SDS011;30477;48.224;11.470;2022-12-29T11:56:48;2.63;;;1.40;;
44750;SDS011;30477;48.224;11.470;2022-12-29T11:59:34;2.33;;;1.35;;
44750;SDS011;30477;48.224;11.470;2022-12-29T12:05:08;2.03;;;1.30;;
44750;SDS011;30477;48.224;11.470;2022-12-29T12:08:07;2.28;;;1.30;;
44750;SDS011;30477;48.224;11.470;2022-12-29T12:10:35;2.78;;;1.52;;
44750;SDS011;30477;48.224;11.470;2022-12-29T12:15:58;2.85;;;1.73;;
44750;SDS011;30477;48.224;11.470;2022-12-29T12:18:53;1.95;;;1.30;;
44750;SDS011;30477;48.224;11.470;2022-12-29T12:21:40;4.25;;;1.45;;
44750;SDS011;30477;48.224;11.470;2022-12-29T12:30:21;5.40;;;1.70;;
44750;SDS011;30477;48.224;11.470;2022-12-29T12:32:41;3.60;;;1.25;;
44750;SDS011;30477;48.224;11.470;2022-12-29T12:35:13;2.15;;;1.40;;
44750;SDS011;30477;48.224;11.470;2022-12-29T12:37:47;2.35;;;1.35;;
44750;SDS011;30477;48.224;11.470;2022-12-29T12:45:59;4.88;;;1.85;;
44750;SDS011;30477;48.224;11.470;2022-12-29T12:59:37;4.47;;;1.63;;
44750;SDS011;30477;48.224;11.470;2022-12-29T13:13:33;5.45;;;1.90;;
44750;SDS011;30477;48.224;11.470;2022-12-29T13:26:37;3.42;;;1.83;;
44750;SDS011;30477;48.224;11.470;2022-12-29T13:29:18;3.25;;;1.60;;
44750;SDS011;30477;48.224;11.470;2022-12-29T13:37:31;2.20;;;1.23;;
44750;SDS011;30477;48.224;11.470;2022-12-29T13:39:59;3.97;;;1.23;;
44750;SDS011;30477;48.224;11.470;2022-12-29T13:42:29;3.15;;;1.65;;
44750;SDS011;30477;48.224;11.470;2022-12-29T13:47:37;3.45;;;1.42;;
44750;SDS011;30477;48.224;11.470;2022-12-29T13:50:20;3.10;;;1.40;;
44750;SDS011;30477;48.224;11.470;2022-12-29T13:55:35;3.25;;;1.35;;
44750;SDS011;30477;48.224;11.470;2022-12-29T13:58:09;2.30;;;1.15;;
44750;SDS011;30477;48.224;11.470;2022-12-29T14:00:44;4.25;;;1.20;;
44750;SDS011;30477;48.224;11.470;2022-12-29T14:03:20;2.70;;;1.38;;
44750;SDS011;30477;48.224;11.470;2022-12-29T14:06:15;2.03;;;1.40;;
44750;SDS011;30477;48.224;11.470;2022-12-29T14:08:45;2.65;;;1.55;;
44750;SDS011;30477;48.224;11.470;2022-12-29T14:11:12;4.57;;;1.50;;
44750;SDS011;30477;48.224;11.470;2022-12-29T14:13:42;4.53;;;1.80;;
44750;SDS011;30477;48.224;11.470;2022-12-29T14:16:21;6.22;;;1.70;;
44750;SDS011;30477;48.224;11.470;2022-12-29T14:18:51;5.28;;;1.65;;
44750;SDS011;30477;48.224;11.470;2022-12-29T14:21:20;4.13;;;1.48;;
44750;SDS011;30477;48.224;11.470;2022-12-29T14:23:49;4.25;;;1.52;;
44750;SDS011;30477;48.224;11.470;2022-12-29T14:26:17;1.70;;;1.25;;
44750;SDS011;30477;48.224;11.470;2022-12-29T14:28:46;2.55;;;1.80;;
44750;SDS011;30477;48.224;11.470;2022-12-29T14:36:38;2.78;;;1.73;;
44750;SDS011;30477;48.224;11.470;2022-12-29T14:39:25;3.60;;;1.42;;
44750;SDS011;30477;48.224;11.470;2022-12-29T14:41:59;4.85;;;1.40;;
44750;SDS011;30477;48.224;11.470;2022-12-29T14:44:27;3.42;;;1.85;;
44750;SDS011;30477;48.224;11.470;2022-12-29T14:49:22;5.27;;;1.80;;
44750;SDS011;30477;48.224;11.470;2022-12-29T14:51:53;5.75;;;1.73;;
44750;SDS011;30477;48.224;11.470;2022-12-29T14:57:06;4.75;;;2.13;;
44750;SDS011;30477;48.224;11.470;2022-12-29T14:59:35;5.13;;;1.90;;
44750;SDS011;30477;48.224;11.470;2022-12-29T15:02:11;5.57;;;2.03;;
44750;SDS011;30477;48.224;11.470;2022-12-29T15:04:42;2.40;;;1.42;;
44750;SDS011;30477;48.224;11.470;2022-12-29T15:07:09;3.40;;;1.20;;
44750;SDS011;30477;48.224;11.470;2022-12-29T15:12:19;6.38;;;1.50;;
44750;SDS011;30477;48.224;11.470;2022-12-29T15:14:52;2.80;;;1.52;;
44750;SDS011;30477;48.224;11.470;2022-12-29T15:19:59;5.00;;;1.75;;
44750;SDS011;30477;48.224;11.470;2022-12-29T15:22:26;3.10;;;1.70;;
44750;SDS011;30477;48.224;11.470;2022-12-29T15:24:53;3.15;;;1.58;;
44750;SDS011;30477;48.224;11.470;2022-12-29T15:27:23;5.22;;;1.80;;
44750;SDS011;30477;48.224;11.470;2022-12-29T15:29:57;3.03;;;1.80;;
44750;SDS011;30477;48.224;11.470;2022-12-29T15:32:25;3.47;;;2.08;;
44750;SDS011;30477;48.224;11.470;2022-12-29T15:34:55;5.13;;;2.53;;
44750;SDS011;30477;48.224;11.470;2022-12-29T15:37:33;5.35;;;2.20;;
44750;SDS011;30477;48.224;11.470;2022-12-29T15:40:00;4.55;;;1.70;;
44750;SDS011;30477;48.224;11.470;2022-12-29T15:45:11;4.10;;;2.15;;
44750;SDS011;30477;48.224;11.470;2022-12-29T15:47:38;2.35;;;1.60;;
44750;SDS011;30477;48.224;11.470;2022-12-29T15:52:40;2.78;;;1.90;;
44750;SDS011;30477;48.224;11.470;2022-12-29T15:55:06;3.47;;;1.70;;
44750;SDS011;30477;48.224;11.470;2022-12-29T15:58:03;3.45;;;1.80;;
44750;SDS011;30477;48.224;11.470;2022-12-29T16:00:34;4.30;;;2.10;;
44750;SDS011;30477;48.224;11.470;2022-12-29T16:03:03;4.97;;;2.20;;
44750;SDS011;30477;48.224;11.470;2022-12-29T16:05:36;3.65;;;1.40;;
44750;SDS011;30477;48.224;11.470;2022-12-29T16:08:15;2.20;;;1.50;;
44750;SDS011;30477;48.224;11.470;2022-12-29T16:10:47;3.50;;;1.70;;
44750;SDS011;30477;48.224;11.470;2022-12-29T16:13:21;5.27;;;1.77;;
44750;SDS011;30477;48.224;11.470;2022-12-29T16:15:55;2.95;;;1.92;;
44750;SDS011;30477;48.224;11.470;2022-12-29T16:18:25;4.40;;;1.70;;
44750;SDS011;30477;48.224;11.470;2022-12-29T16:20:52;4.90;;;2.25;;
44750;SDS011;30477;48.224;11.470;2022-12-29T16:23:20;2.53;;;2.13;;
44750;SDS011;30477;48.224;11.470;2022-12-29T16:25:49;3.75;;;2.10;;
44750;SDS011;30477;48.224;11.470;2022-12-29T16:28:20;4.18;;;2.58;;
44750;SDS011;30477;48.224;11.470;2022-12-29T16:30:56;7.30;;;2.78;;
44750;SDS011;30477;48.224;11.470;2022-12-29T16:36:40;5.13;;;2.25;;
44750;SDS011;30477;48.224;11.470;2022-12-29T16:39:27;2.35;;;1.80;;
44750;SDS011;30477;48.224;11.470;2022-12-29T16:41:56;3.17;;;2.17;;
44750;SDS011;30477;48.224;11.470;2022-12-29T16:44:23;5.57;;;1.85;;
44750;SDS011;30477;48.224;11.470;2022-12-29T16:49:50;2.53;;;1.55;;
44750;SDS011;30477;48.224;11.470;2022-12-29T16:54:44;5.20;;;1.70;;
44750;SDS011;30477;48.224;11.470;2022-12-29T16:57:19;6.13;;;2.22;;
44750;SDS011;30477;48.224;11.470;2022-12-29T16:59:47;4.35;;;1.90;;
44750;SDS011;30477;48.224;11.470;2022-12-29T17:02:18;6.05;;;1.85;;
44750;SDS011;30477;48.224;11.470;2022-12-29T17:04:46;3.25;;;1.95;;
44750;SDS011;30477;48.224;11.470;2022-12-29T17:07:18;4.13;;;2.10;;
44750;SDS011;30477;48.224;11.470;2022-12-29T17:09:45;5.97;;;1.80;;
44750;SDS011;30477;48.224;11.470;2022-12-29T17:12:13;4.07;;;2.53;;
44750;SDS011;30477;48.224;11.470;2022-12-29T17:14:43;6.70;;;2.40;;
44750;SDS011;30477;48.224;11.470;2022-12-29T17:17:16;3.38;;;2.40;;
44750;SDS011;30477;48.224;11.470;2022-12-29T17:20:04;4.10;;;2.10;;
44750;SDS011;30477;48.224;11.470;2022-12-29T17:22:46;3.35;;;2.00;;
44750;SDS011;30477;48.224;11.470;2022-12-29T17:25:17;2.60;;;1.80;;
44750;SDS011;30477;48.224;11.470;2022-12-29T17:27:46;2.83;;;1.90;;
44750;SDS011;30477;48.224;11.470;2022-12-29T17:30:20;3.33;;;1.60;;
44750;SDS011;30477;48.224;11.470;2022-12-29T17:32:55;5.07;;;2.22;;